createdAt,value
2018-01-20T00:01:14.526Z,79.44
2018-01-20T00:03:41.090Z,79.50
2018-01-20T00:06:07.743Z,79.68
2018-01-20T00:08:34.408Z,79.46
2018-01-20T00:11:19.533Z,79.15
2018-01-20T00:13:46.115Z,78.80
2018-01-20T00:16:12.768Z,78.41
2018-01-20T00:18:39.392Z,78.22
2018-01-20T00:21:05.991Z,78.07
2018-01-20T00:23:32.611Z,77.88
2018-01-20T00:26:05.369Z,78.06
2018-01-20T00:28:32.006Z,77.87
2018-01-20T00:30:58.671Z,77.71
2018-01-20T00:33:25.248Z,77.62
2018-01-20T00:35:51.891Z,77.22
2018-01-20T00:38:18.462Z,77.03
2018-01-20T00:40:45.059Z,77.30
2018-01-20T00:43:11.655Z,77.53
2018-01-20T00:45:38.286Z,77.55
2018-01-20T00:48:04.860Z,77.66
2018-01-20T00:50:32.203Z,77.60
2018-01-20T00:52:58.847Z,77.61
2018-01-20T00:55:26.163Z,77.99
2018-01-20T00:57:52.775Z,77.83
2018-01-20T01:00:19.422Z,78.09
2018-01-20T01:02:46.011Z,78.04
2018-01-20T01:05:13.330Z,78.41
2018-01-20T01:07:40.682Z,78.50
2018-01-20T01:10:07.293Z,78.60
2018-01-20T01:12:33.903Z,78.61
2018-01-20T01:15:00.498Z,78.36
2018-01-20T01:17:27.065Z,78.28
2018-01-20T01:19:54.377Z,78.33
2018-01-20T01:22:20.962Z,78.64
2018-01-20T01:24:47.542Z,78.59
2018-01-20T01:27:14.136Z,78.77
2018-01-20T01:29:40.830Z,78.62
2018-01-20T01:32:07.449Z,78.57
2018-01-20T01:34:34.027Z,78.37
2018-01-20T01:37:00.678Z,78.64
2018-01-20T01:39:28.008Z,78.93
2018-01-20T01:41:54.622Z,78.81
2018-01-20T01:44:21.222Z,78.58
2018-01-20T01:46:47.801Z,78.36
2018-01-20T01:49:14.397Z,78.56
2018-01-20T01:51:41.381Z,78.04
2018-01-20T01:54:08.243Z,78.13
2018-01-20T01:56:35.648Z,78.23
2018-01-20T01:59:02.326Z,78.13
2018-01-20T02:01:28.899Z,78.66
2018-01-20T02:03:55.616Z,79.57
2018-01-20T02:06:22.333Z,80.11
2018-01-20T02:08:48.931Z,80.22
2018-01-20T02:11:15.541Z,80.19
2018-01-20T02:13:42.137Z,80.06
2018-01-20T02:16:08.815Z,79.99
2018-01-20T02:18:35.421Z,80.32
2018-01-20T02:21:02.246Z,80.33
2018-01-20T02:23:28.833Z,80.52
2018-01-20T02:25:55.394Z,80.39
2018-01-20T02:28:22.013Z,80.29
2018-01-20T02:30:49.337Z,80.10
2018-01-20T02:33:15.950Z,80.34
2018-01-20T02:35:42.698Z,80.47
2018-01-20T02:38:09.254Z,80.06
2018-01-20T02:40:35.896Z,80.12
2018-01-20T02:43:02.807Z,79.99
2018-01-20T02:45:29.380Z,79.90
2018-01-20T02:47:55.942Z,80.01
2018-01-20T02:50:22.531Z,79.79
2018-01-20T02:52:49.133Z,79.79
2018-01-20T02:55:15.798Z,79.66
2018-01-20T02:57:42.463Z,79.42
2018-01-20T03:00:09.874Z,79.38
2018-01-20T03:02:36.459Z,79.26
2018-01-20T03:05:03.067Z,79.40
2018-01-20T03:07:29.810Z,79.23
2018-01-20T03:09:56.402Z,79.25
2018-01-20T03:12:23.000Z,79.35
2018-01-20T03:14:49.558Z,79.34
2018-01-20T03:17:16.934Z,79.26
2018-01-20T03:19:43.542Z,79.43
2018-01-20T03:22:10.190Z,79.44
2018-01-20T03:24:37.522Z,79.33
2018-01-20T03:27:04.178Z,79.32
2018-01-20T03:29:31.481Z,79.42
2018-01-20T03:31:58.050Z,79.55
2018-01-20T03:34:25.383Z,79.87
2018-01-20T03:36:51.977Z,79.79
2018-01-20T03:39:18.606Z,79.82
2018-01-20T03:41:45.254Z,80.11
2018-01-20T03:44:11.842Z,80.24
2018-01-20T03:46:38.390Z,80.28
2018-01-20T03:49:04.971Z,80.36
2018-01-20T03:51:31.547Z,80.40
2018-01-20T03:53:58.998Z,80.45
2018-01-20T03:56:25.634Z,80.52
2018-01-20T03:58:52.333Z,80.63
2018-01-20T04:01:19.006Z,80.78
2018-01-20T04:03:45.710Z,81.04
2018-01-20T04:06:12.304Z,81.14
2018-01-20T04:08:38.878Z,81.47
2018-01-20T04:11:05.550Z,81.51
2018-01-20T04:13:32.114Z,81.91
2018-01-20T04:15:58.689Z,82.17
2018-01-20T04:18:25.271Z,82.14
2018-01-20T04:20:51.842Z,81.93
2018-01-20T04:23:19.221Z,82.15
2018-01-20T04:25:45.937Z,82.26
2018-01-20T04:28:12.554Z,82.46
2018-01-20T04:30:39.127Z,82.34
2018-01-20T04:33:05.798Z,82.53
2018-01-20T04:35:32.402Z,82.75
2018-01-20T04:37:58.995Z,82.87
2018-01-20T04:40:26.217Z,83.02
2018-01-20T04:42:52.856Z,83.27
2018-01-20T04:45:19.445Z,83.28
2018-01-20T04:47:46.121Z,83.22
2018-01-20T04:50:12.722Z,83.22
2018-01-20T04:52:40.099Z,83.11
2018-01-20T04:55:06.693Z,83.48
2018-01-20T04:57:33.513Z,83.89
2018-01-20T05:00:00.093Z,84.07
2018-01-20T05:02:27.427Z,83.95
2018-01-20T05:04:54.027Z,84.02
2018-01-20T05:07:20.687Z,84.03
2018-01-20T05:09:47.969Z,83.91
2018-01-20T05:12:15.315Z,83.84
2018-01-20T05:14:41.885Z,83.78
2018-01-20T05:17:08.454Z,83.56
2018-01-20T05:19:35.044Z,83.18
2018-01-20T05:22:01.661Z,83.34
2018-01-20T05:24:28.256Z,83.75
2018-01-20T05:26:54.847Z,83.75
2018-01-20T05:29:21.954Z,84.12
2018-01-20T05:31:49.263Z,84.43
2018-01-20T05:34:15.837Z,84.77
2018-01-20T05:36:42.432Z,84.70
2018-01-20T05:39:09.035Z,84.62
2018-01-20T05:41:35.602Z,84.55
2018-01-20T05:44:02.241Z,84.78
2018-01-20T05:46:29.542Z,85.15
2018-01-20T05:48:56.155Z,85.23
2018-01-20T05:51:22.746Z,85.50
2018-01-20T05:53:50.058Z,85.54
2018-01-20T05:56:16.646Z,85.56
2018-01-20T05:58:43.259Z,85.53
2018-01-20T06:01:09.884Z,85.36
2018-01-20T06:03:36.471Z,85.29
2018-01-20T06:06:03.067Z,85.29
2018-01-20T06:08:30.402Z,85.40
2018-01-20T06:10:57.009Z,85.69
2018-01-20T06:13:23.611Z,85.87
2018-01-20T06:15:50.302Z,85.54
2018-01-20T06:18:16.994Z,85.70
2018-01-20T06:20:44.314Z,85.87
2018-01-20T06:23:11.622Z,85.67
2018-01-20T06:25:38.962Z,85.31
2018-01-20T06:28:06.566Z,85.23
2018-01-20T06:30:33.142Z,85.29
2018-01-20T06:32:59.682Z,84.94
2018-01-20T06:35:26.261Z,84.81
2018-01-20T06:37:52.827Z,84.58
2018-01-20T06:40:19.516Z,84.45
2018-01-20T06:42:46.090Z,84.47
2018-01-20T06:45:12.670Z,84.40
2018-01-20T06:47:40.252Z,84.46
2018-01-20T06:50:06.853Z,84.49
2018-01-20T06:52:33.451Z,84.55
2018-01-20T06:55:00.035Z,84.30
2018-01-20T06:57:26.678Z,84.37
2018-01-20T06:59:53.324Z,84.53
2018-01-20T07:02:20.671Z,84.57
2018-01-20T07:04:47.990Z,84.70
2018-01-20T07:07:15.365Z,85.21
2018-01-20T07:09:42.687Z,85.53
2018-01-20T07:12:09.275Z,85.39
2018-01-20T07:14:36.709Z,85.36
2018-01-20T07:17:03.306Z,85.40
2018-01-20T07:19:29.990Z,85.06
2018-01-20T07:21:56.598Z,84.91
2018-01-20T07:24:23.273Z,84.48
2018-01-20T07:26:49.886Z,84.34
2018-01-20T07:29:16.456Z,84.28
2018-01-20T07:31:43.830Z,84.14
2018-01-20T07:34:11.335Z,83.86
2018-01-20T07:36:37.976Z,83.93
2018-01-20T07:39:04.599Z,83.72
2018-01-20T07:41:31.302Z,83.75
2018-01-20T07:43:57.866Z,83.67
2018-01-20T07:46:24.465Z,83.55
2018-01-20T07:48:51.066Z,83.73
2018-01-20T07:51:17.631Z,83.86
2018-01-20T07:53:45.031Z,83.75
2018-01-20T07:56:11.722Z,83.37
2018-01-20T07:58:38.322Z,83.43
2018-01-20T08:01:05.030Z,83.37
2018-01-20T08:03:31.610Z,83.30
2018-01-20T08:05:58.230Z,83.13
2018-01-20T08:08:24.841Z,82.87
2018-01-20T08:10:51.499Z,82.79
2018-01-20T08:13:18.078Z,82.48
2018-01-20T08:15:45.424Z,82.42
2018-01-20T08:18:12.841Z,82.42
2018-01-20T08:20:39.414Z,82.42
2018-01-20T08:23:05.994Z,82.40
2018-01-20T08:25:32.672Z,82.07
2018-01-20T08:27:59.272Z,82.20
2018-01-20T08:30:25.946Z,82.52
2018-01-20T08:32:52.538Z,82.34
2018-01-20T08:35:19.257Z,82.32
2018-01-20T08:37:46.663Z,82.33
2018-01-20T08:40:13.387Z,82.10
2018-01-20T08:42:39.978Z,82.00
2018-01-20T08:45:07.357Z,81.80
2018-01-20T08:47:33.935Z,81.83
2018-01-20T08:50:00.567Z,82.13
2018-01-20T08:52:27.750Z,82.29
2018-01-20T08:54:54.355Z,82.41
2018-01-20T08:57:20.999Z,82.25
2018-01-20T08:59:47.615Z,82.41
2018-01-20T09:02:14.222Z,82.44
2018-01-20T09:04:40.838Z,82.34
2018-01-20T09:07:07.425Z,82.31
2018-01-20T09:09:34.058Z,82.13
2018-01-20T09:12:00.753Z,81.89
2018-01-20T09:14:27.348Z,81.83
2018-01-20T09:16:53.937Z,81.95
2018-01-20T09:19:22.574Z,81.36
2018-01-20T09:21:49.961Z,81.02
2018-01-20T09:24:17.306Z,81.09
2018-01-20T09:26:44.253Z,81.07
2018-01-20T09:29:10.844Z,80.75
2018-01-20T09:31:37.474Z,80.92
2018-01-20T09:34:04.190Z,80.69
2018-01-20T09:36:31.612Z,80.02
2018-01-20T09:38:58.225Z,80.02
2018-01-20T09:41:24.824Z,79.93
2018-01-20T09:43:51.481Z,79.79
2018-01-20T09:46:18.102Z,79.48
2018-01-20T09:48:44.700Z,79.17
2018-01-20T09:51:11.379Z,79.23
2018-01-20T09:53:38.016Z,79.18
2018-01-20T09:56:04.664Z,78.97
2018-01-20T09:58:31.299Z,78.66
2018-01-20T10:00:57.930Z,78.30
2018-01-20T10:03:25.549Z,78.18
2018-01-20T10:05:52.127Z,77.71
2018-01-20T10:08:19.470Z,77.17
2018-01-20T10:10:46.145Z,76.71
2018-01-20T10:13:13.527Z,75.90
2018-01-20T10:15:40.153Z,75.87
2018-01-20T10:18:06.830Z,75.70
2018-01-20T10:20:33.494Z,75.76
2018-01-20T10:23:00.095Z,75.72
2018-01-20T10:25:26.741Z,75.98
2018-01-20T10:27:54.132Z,76.02
2018-01-20T10:30:20.802Z,76.20
2018-01-20T10:32:47.422Z,76.12
2018-01-20T10:35:14.057Z,76.16
2018-01-20T10:37:40.686Z,76.05
2018-01-20T10:40:07.348Z,76.38
2018-01-20T10:42:33.975Z,76.46
2018-01-20T10:45:00.578Z,76.70
2018-01-20T10:47:27.200Z,76.78
2018-01-20T10:49:54.577Z,76.23
2018-01-20T10:52:21.325Z,75.93
2018-01-20T10:54:47.916Z,76.03
2018-01-20T10:57:14.520Z,75.83
2018-01-20T10:59:41.130Z,76.19
2018-01-20T11:02:07.742Z,76.25
2018-01-20T11:04:35.093Z,76.70
2018-01-20T11:07:01.738Z,76.49
2018-01-20T11:09:29.360Z,76.92
2018-01-20T11:11:55.954Z,76.23
2018-01-20T11:14:22.578Z,75.70
2018-01-20T11:16:50.162Z,75.13
2018-01-20T11:19:16.767Z,74.74
2018-01-20T11:21:43.422Z,74.11
2018-01-20T11:24:10.038Z,74.20
2018-01-20T11:26:37.476Z,74.31
2018-01-20T11:29:04.109Z,74.08
2018-01-20T11:31:30.684Z,73.52
2018-01-20T11:33:57.306Z,73.67
2018-01-20T11:36:23.964Z,74.16
2018-01-20T11:38:50.537Z,73.64
2018-01-20T11:41:17.160Z,74.00
2018-01-20T11:43:43.850Z,73.77
2018-01-20T11:46:10.545Z,73.02
2018-01-20T11:48:37.135Z,73.45
2018-01-20T11:51:03.718Z,73.32
2018-01-20T11:53:30.482Z,73.70
2018-01-20T11:55:57.113Z,74.15
2018-01-20T11:58:23.723Z,73.99
2018-01-20T12:00:50.369Z,73.48
2018-01-20T12:03:17.105Z,73.26
2018-01-20T12:05:43.765Z,73.56
2018-01-20T12:08:10.466Z,73.79
2018-01-20T12:10:37.058Z,74.12
2018-01-20T12:13:06.050Z,73.80
2018-01-20T12:15:35.143Z,73.47
2018-01-20T12:18:02.148Z,74.03
2018-01-20T12:20:28.846Z,74.44
2018-01-20T12:22:56.228Z,74.35
2018-01-20T12:25:22.878Z,74.23
2018-01-20T12:27:49.503Z,74.32
2018-01-20T12:30:16.186Z,74.63
2018-01-20T12:32:42.849Z,74.84
2018-01-20T12:35:09.506Z,75.04
2018-01-20T12:37:36.852Z,75.07
2018-01-20T12:40:04.269Z,75.21
2018-01-20T12:42:30.990Z,75.71
2018-01-20T12:44:57.624Z,75.54
2018-01-20T12:47:24.447Z,75.58
2018-01-20T12:49:51.126Z,75.62
2018-01-20T12:52:17.777Z,75.30
2018-01-20T12:54:45.147Z,76.01
2018-01-20T12:57:11.769Z,75.57
2018-01-20T12:59:38.438Z,75.91
2018-01-20T13:02:05.099Z,75.65
2018-01-20T13:04:31.701Z,75.41
2018-01-20T13:06:59.198Z,75.18
2018-01-20T13:09:25.816Z,75.27
2018-01-20T13:11:52.465Z,75.75
2018-01-20T13:14:19.103Z,74.98
2018-01-20T13:16:45.689Z,75.01
2018-01-20T13:19:12.271Z,75.01
2018-01-20T13:21:38.914Z,75.88
2018-01-20T13:24:05.602Z,75.77
2018-01-20T13:26:32.203Z,75.90
2018-01-20T13:28:58.792Z,75.58
2018-01-20T13:31:26.152Z,75.83
2018-01-20T13:33:53.562Z,75.87
2018-01-20T13:36:20.170Z,76.19
2018-01-20T13:38:46.775Z,75.89
2018-01-20T13:41:13.518Z,76.28
2018-01-20T13:43:40.190Z,76.16
2018-01-20T13:46:06.778Z,76.04
2018-01-20T13:48:33.474Z,76.08
2018-01-20T13:51:00.063Z,76.41
2018-01-20T13:53:26.643Z,76.47
2018-01-20T13:55:53.291Z,76.53
2018-01-20T13:58:19.910Z,75.92
2018-01-20T14:00:46.554Z,76.22
2018-01-20T14:03:13.159Z,76.40
2018-01-20T14:05:40.473Z,76.39
2018-01-20T14:08:07.901Z,76.38
2018-01-20T14:10:34.512Z,76.41
2018-01-20T14:13:01.842Z,76.82
2018-01-20T14:15:28.471Z,76.36
2018-01-20T14:17:55.127Z,76.57
2018-01-20T14:20:21.690Z,76.63
2018-01-20T14:22:48.295Z,76.98
2018-01-20T14:25:15.223Z,76.88
2018-01-20T14:27:41.851Z,77.18
2018-01-20T14:30:08.475Z,76.82
2018-01-20T14:32:35.125Z,77.11
2018-01-20T14:35:01.733Z,76.81
2018-01-20T14:37:28.340Z,76.48
2018-01-20T14:39:55.719Z,76.09
2018-01-20T14:42:22.300Z,76.49
2018-01-20T14:44:48.926Z,76.34
2018-01-20T14:47:15.549Z,76.63
2018-01-20T14:49:42.192Z,75.57
2018-01-20T14:52:08.845Z,75.58
2018-01-20T14:54:35.433Z,75.28
2018-01-20T14:57:02.094Z,75.81
2018-01-20T14:59:28.676Z,75.15
2018-01-20T15:01:55.539Z,75.29
2018-01-20T15:04:22.890Z,75.34
2018-01-20T15:06:49.643Z,75.86
2018-01-20T15:09:16.301Z,74.96
2018-01-20T15:11:42.918Z,75.04
2018-01-20T15:14:10.394Z,75.36
2018-01-20T15:16:36.978Z,75.93
2018-01-20T15:19:03.606Z,76.02
2018-01-20T15:21:30.219Z,76.68
2018-01-20T15:23:56.836Z,77.04
2018-01-20T15:26:23.441Z,77.32
2018-01-20T15:28:50.059Z,77.57
2018-01-20T15:31:18.277Z,77.43
2018-01-20T15:33:44.873Z,77.87
2018-01-20T15:36:11.483Z,78.26
2018-01-20T15:38:38.077Z,78.23
2018-01-20T15:41:05.411Z,78.65
2018-01-20T15:43:32.061Z,78.64
2018-01-20T15:45:59.394Z,79.18
2018-01-20T15:48:25.972Z,79.13
2018-01-20T15:50:52.657Z,79.34
2018-01-20T15:53:19.261Z,79.34
2018-01-20T15:55:45.909Z,79.83
2018-01-20T15:58:12.493Z,80.21
2018-01-20T16:00:39.090Z,80.54
2018-01-20T16:03:05.811Z,80.82
2018-01-20T16:05:32.546Z,81.38
2018-01-20T16:07:59.225Z,81.58
2018-01-20T16:10:25.837Z,81.89
2018-01-20T16:12:52.478Z,82.05
2018-01-20T16:15:19.103Z,82.02
2018-01-20T16:17:45.731Z,82.47
2018-01-20T16:20:12.333Z,82.86
2018-01-20T16:22:39.655Z,83.10
2018-01-20T16:25:07.411Z,83.61
2018-01-20T16:27:33.992Z,83.82
2018-01-20T16:30:01.364Z,83.82
2018-01-20T16:32:28.230Z,83.60
2018-01-20T16:34:54.841Z,83.63
2018-01-20T16:37:23.225Z,83.59
2018-01-20T16:39:49.854Z,83.59
2018-01-20T16:42:16.441Z,83.90
2018-01-20T16:44:43.076Z,84.10
2018-01-20T16:47:09.685Z,84.14
2018-01-20T16:49:36.270Z,84.40
2018-01-20T16:52:03.634Z,84.32
2018-01-20T16:54:30.250Z,84.15
2018-01-20T16:56:57.601Z,84.18
2018-01-20T16:59:24.205Z,84.01
2018-01-20T17:01:50.774Z,83.83
2018-01-20T17:04:17.408Z,84.03
2018-01-20T17:06:43.990Z,83.97
2018-01-20T17:09:11.350Z,84.19
2018-01-20T17:11:38.718Z,84.22
2018-01-20T17:14:05.308Z,84.14
2018-01-20T17:16:31.946Z,84.02
2018-01-20T17:18:58.534Z,84.08
2018-01-20T17:21:25.130Z,83.82
2018-01-20T17:23:52.519Z,83.56
2018-01-20T17:26:19.070Z,83.71
2018-01-20T17:28:46.189Z,84.01
2018-01-20T17:31:13.495Z,84.45
2018-01-20T17:33:40.132Z,84.44
2018-01-20T17:36:07.518Z,84.67
2018-01-20T17:38:34.875Z,85.03
2018-01-20T17:41:02.225Z,85.29
2018-01-20T17:43:30.291Z,85.25
2018-01-20T17:45:57.220Z,85.56
2018-01-20T17:48:23.833Z,85.70
2018-01-20T17:50:50.461Z,85.87
2018-01-20T17:53:17.131Z,86.11
2018-01-20T17:55:43.774Z,85.86
2018-01-20T17:58:10.358Z,85.89
2018-01-20T18:00:37.001Z,86.11
2018-01-20T18:03:03.671Z,85.97
2018-01-20T18:05:30.257Z,86.01
2018-01-20T18:07:56.898Z,85.96
2018-01-20T18:10:23.510Z,85.96
2018-01-20T18:12:50.083Z,86.17
2018-01-20T18:15:16.896Z,86.25
2018-01-20T18:17:43.636Z,86.39
2018-01-20T18:20:11.065Z,86.25
2018-01-20T18:22:37.650Z,86.34
2018-01-20T18:25:04.251Z,86.26
2018-01-20T18:27:30.851Z,86.41
2018-01-20T18:29:57.454Z,86.35
2018-01-20T18:32:24.851Z,86.18
2018-01-20T18:34:51.438Z,86.13
2018-01-20T18:37:18.898Z,86.40
2018-01-20T18:39:46.229Z,86.47
2018-01-20T18:42:13.638Z,86.41
2018-01-20T18:44:40.283Z,86.37
2018-01-20T18:47:06.901Z,86.45
2018-01-20T18:49:34.203Z,86.27
2018-01-20T18:52:01.606Z,85.98
2018-01-20T18:54:28.211Z,85.95
2018-01-20T18:56:55.583Z,86.06
2018-01-20T18:59:22.900Z,86.00
2018-01-20T19:01:49.758Z,86.26
2018-01-20T19:04:16.346Z,86.25
2018-01-20T19:06:42.949Z,86.29
2018-01-20T19:09:10.341Z,86.34
2018-01-20T19:11:36.933Z,86.40
2018-01-20T19:14:04.302Z,86.40
2018-01-20T19:16:30.891Z,86.42
2018-01-20T19:18:57.554Z,86.43
2018-01-20T19:21:24.157Z,86.50
2018-01-20T19:23:51.026Z,86.48
2018-01-20T19:26:17.612Z,86.44
2018-01-20T19:28:44.210Z,86.49
2018-01-20T19:31:11.566Z,86.20
2018-01-20T19:33:38.874Z,86.15
2018-01-20T19:36:05.472Z,86.25
2018-01-20T19:38:32.889Z,86.22
2018-01-20T19:40:59.574Z,86.05
2018-01-20T19:43:26.211Z,86.21
2018-01-20T19:45:53.546Z,86.36
2018-01-20T19:48:20.858Z,86.42
2018-01-20T19:50:47.488Z,86.60
2018-01-20T19:53:14.069Z,86.42
2018-01-20T19:55:41.430Z,86.24
2018-01-20T19:58:08.743Z,86.34
2018-01-20T20:00:35.313Z,86.50
2018-01-20T20:03:01.968Z,86.45
2018-01-20T20:05:29.362Z,86.56
2018-01-20T20:07:55.978Z,86.42
2018-01-20T20:10:22.593Z,86.61
2018-01-20T20:12:49.208Z,86.79
2018-01-20T20:15:16.634Z,86.80
2018-01-20T20:17:43.269Z,86.92
2018-01-20T20:20:09.864Z,86.87
2018-01-20T20:22:37.178Z,87.17
2018-01-20T20:25:03.788Z,87.24
2018-01-20T20:27:30.399Z,87.20
2018-01-20T20:29:57.773Z,87.23
2018-01-20T20:32:24.379Z,87.19
2018-01-20T20:34:51.723Z,87.03
2018-01-20T20:37:19.102Z,87.19
2018-01-20T20:39:45.717Z,87.30
2018-01-20T20:42:12.381Z,86.98
2018-01-20T20:44:38.994Z,87.11
2018-01-20T20:47:06.331Z,87.27
2018-01-20T20:49:32.921Z,87.26
2018-01-20T20:51:59.561Z,87.35
2018-01-20T20:54:26.135Z,87.47
2018-01-20T20:56:52.966Z,87.49
2018-01-20T20:59:19.557Z,87.45
2018-01-20T21:01:46.139Z,87.49
2018-01-20T21:04:12.862Z,87.41
2018-01-20T21:06:40.285Z,87.37
2018-01-20T21:09:06.886Z,87.41
2018-01-20T21:11:33.476Z,87.36
2018-01-20T21:14:00.105Z,87.12
2018-01-20T21:16:26.713Z,87.03
2018-01-20T21:18:53.405Z,86.97
2018-01-20T21:21:20.057Z,86.98
2018-01-20T21:23:46.710Z,87.03
2018-01-20T21:26:13.518Z,87.11
2018-01-20T21:28:40.110Z,86.94
2018-01-20T21:31:07.418Z,86.89
2018-01-20T21:33:34.076Z,86.91
2018-01-20T21:36:00.668Z,86.98
2018-01-20T21:38:27.279Z,87.10
2018-01-20T21:40:54.606Z,87.08
2018-01-20T21:43:21.206Z,87.10
2018-01-20T21:45:47.804Z,87.24
2018-01-20T21:48:15.405Z,87.21
2018-01-20T21:50:41.957Z,87.22
2018-01-20T21:53:08.556Z,87.11
2018-01-20T21:55:35.201Z,86.86
2018-01-20T21:58:01.774Z,86.83
2018-01-20T22:00:28.438Z,86.97
2018-01-20T22:02:55.834Z,86.94
2018-01-20T22:05:22.458Z,87.00
2018-01-20T22:07:49.094Z,86.92
2018-01-20T22:10:16.385Z,86.97
2018-01-20T22:12:43.022Z,87.00
2018-01-20T22:15:09.617Z,86.81
2018-01-20T22:17:36.239Z,86.84
2018-01-20T22:20:02.858Z,86.94
2018-01-20T22:22:29.453Z,86.87
2018-01-20T22:24:56.090Z,86.96
2018-01-20T22:27:22.657Z,86.96
2018-01-20T22:29:49.250Z,87.03
2018-01-20T22:32:15.858Z,87.03
2018-01-20T22:34:43.177Z,86.75
2018-01-20T22:37:09.774Z,86.80
2018-01-20T22:39:36.386Z,86.83
2018-01-20T22:42:03.014Z,86.46
2018-01-20T22:44:30.364Z,86.68
2018-01-20T22:46:56.974Z,86.91
2018-01-20T22:49:23.545Z,87.17
2018-01-20T22:51:50.110Z,87.15
2018-01-20T22:54:16.725Z,86.94
2018-01-20T22:56:44.068Z,87.29
2018-01-20T22:59:11.415Z,87.05
2018-01-20T23:01:37.989Z,86.84
2018-01-20T23:04:04.602Z,86.83
2018-01-20T23:06:31.937Z,86.42
2018-01-20T23:08:58.601Z,86.37
2018-01-20T23:11:25.213Z,86.15
2018-01-20T23:13:51.771Z,86.11
2018-01-20T23:16:19.118Z,86.17
2018-01-20T23:18:45.725Z,86.27
2018-01-20T23:21:12.368Z,86.20
2018-01-20T23:23:39.738Z,86.25
2018-01-20T23:26:06.333Z,86.16
2018-01-20T23:28:32.901Z,86.16
2018-01-20T23:30:59.486Z,86.33
2018-01-20T23:33:26.357Z,86.25
2018-01-20T23:35:52.917Z,86.62
2018-01-20T23:38:19.489Z,86.48
2018-01-20T23:40:46.850Z,86.34
2018-01-20T23:43:13.447Z,86.32
2018-01-20T23:45:40.035Z,86.33
2018-01-20T23:48:06.651Z,86.12
2018-01-20T23:50:33.984Z,85.83
2018-01-20T23:53:01.313Z,86.20
2018-01-20T23:55:28.031Z,85.97
2018-01-20T23:57:54.742Z,86.25
